Time;durP1;ratioP1;P1;durP2;ratioP2;P2;SDS_P1;SDS_P2;PMS_P1;PMS_P2;Temp;Humidity;BMP_temperature;BMP_pressure;BME280_temperature;BME280_humidity;BME280_pressure;Samples;Min_cycle;Max_cycle;Signal;HPM_P1;HPM_P2
2021/10/10 00:00:57;;;;;;;9.73;7.70;;;;;;;13.52;61.15;101661.25;4908100;29;20037;-76
2021/10/10 00:03:22;;;;;;;10.60;7.70;;;;;;;13.49;61.18;101662.63;4901690;29;20543;-76
2021/10/10 00:05:48;;;;;;;6.13;5.60;;;;;;;13.54;61.63;101653.63;4903031;29;20043;-76
2021/10/10 00:08:13;;;;;;;11.15;8.57;;;;;;;13.55;61.70;101660.75;4916895;29;20028;-73
2021/10/10 00:10:39;;;;;;;7.95;6.85;;;;;;;13.56;61.47;101673.41;4894063;29;20386;-73
2021/10/10 00:13:05;;;;;;;7.85;7.25;;;;;;;13.44;61.75;101660.63;4917236;29;20083;-72
2021/10/10 00:15:30;;;;;;;13.63;10.35;;;;;;;13.47;62.11;101669.47;4900110;29;20451;-72
2021/10/10 00:17:56;;;;;;;11.60;9.50;;;;;;;13.39;62.12;101666.06;4898700;29;20083;-73
2021/10/10 00:20:22;;;;;;;10.10;9.07;;;;;;;13.35;61.92;101662.16;4900148;29;20029;-73
2021/10/10 00:22:48;;;;;;;9.10;8.18;;;;;;;13.30;61.80;101666.72;4900419;29;20062;-74
2021/10/10 00:25:14;;;;;;;7.97;7.07;;;;;;;13.27;62.44;101665.31;4899272;29;20025;-72
2021/10/10 00:27:43;;;;;;;6.65;6.15;;;;;;;13.25;62.24;101659.25;4890941;29;20036;-73
2021/10/10 00:30:09;;;;;;;5.28;4.88;;;;;;;13.26;62.63;101658.19;4903660;29;20059;-73
2021/10/10 00:32:36;;;;;;;5.97;4.18;;;;;;;13.26;61.95;101658.19;4899557;29;20036;-74
2021/10/10 00:35:01;;;;;;;2.92;2.80;;;;;;;13.26;62.10;101658.19;4866156;29;20033;-74
2021/10/10 00:37:27;;;;;;;4.03;3.72;;;;;;;13.24;62.01;101663.06;4901541;29;20364;-74
2021/10/10 00:39:56;;;;;;;2.30;2.20;;;;;;;13.30;62.37;101670.28;4916609;29;20028;-74
2021/10/10 00:42:28;;;;;;;2.65;2.53;;;;;;;13.17;61.82;101656.94;4901441;29;20047;-72
2021/10/10 00:44:53;;;;;;;4.10;3.78;;;;;;;13.19;62.45;101657.53;4904921;29;20029;-74
2021/10/10 00:47:19;;;;;;;4.32;3.90;;;;;;;13.19;62.06;101663.03;4901468;29;20032;-74
2021/10/10 00:49:45;;;;;;;3.92;3.67;;;;;;;13.13;62.19;101664.00;4901576;29;20080;-73
2021/10/10 00:52:16;;;;;;;9.23;8.25;;;;;;;13.04;62.68;101667.19;4900803;29;20113;-73
2021/10/10 00:54:46;;;;;;;11.50;8.90;;;;;;;13.01;62.85;101673.19;4899750;29;20475;-73
2021/10/10 00:57:12;;;;;;;10.63;9.52;;;;;;;12.96;63.08;101681.34;4911889;29;20036;-74
2021/10/10 00:59:41;;;;;;;12.02;10.02;;;;;;;12.84;63.09;101669.66;4900323;29;20095;-75
2021/10/10 01:02:07;;;;;;;13.57;8.02;;;;;;;12.87;63.57;101677.38;4886759;29;20032;-73
2021/10/10 01:04:33;;;;;;;8.82;6.97;;;;;;;12.83;63.07;101681.69;4896802;29;20122;-74
2021/10/10 01:07:00;;;;;;;14.90;11.50;;;;;;;12.86;64.44;101681.19;4901591;29;20032;-74
2021/10/10 01:09:27;;;;;;;20.95;12.10;;;;;;;12.83;64.15;101676.22;4900411;29;20356;-73
2021/10/10 01:11:53;;;;;;;21.58;12.45;;;;;;;12.80;64.20;101671.22;4872674;29;20124;-73
2021/10/10 01:14:19;;;;;;;18.05;12.02;;;;;;;12.81;64.43;101678.38;4904547;29;20043;-74
2021/10/10 01:16:44;;;;;;;12.60;10.05;;;;;;;12.79;64.10;101680.53;4911052;29;20024;-73
2021/10/10 01:19:10;;;;;;;10.32;8.27;;;;;;;12.77;64.43;101677.22;4917317;29;20051;-73
2021/10/10 01:21:36;;;;;;;10.45;8.65;;;;;;;12.73;64.64;101674.13;4905077;29;20036;-74
2021/10/10 01:24:06;;;;;;;10.95;8.75;;;;;;;12.72;64.74;101681.53;4901434;29;20032;-75
2021/10/10 01:26:31;;;;;;;10.95;8.60;;;;;;;12.70;64.59;101682.88;4910632;29;20043;-74
2021/10/10 01:28:58;;;;;;;7.85;7.07;;;;;;;12.65;64.52;101674.56;4907277;29;20398;-74
2021/10/10 01:31:24;;;;;;;8.68;7.78;;;;;;;12.63;64.40;101684.94;4899910;29;20061;-73
2021/10/10 01:33:49;;;;;;;8.15;7.45;;;;;;;12.62;64.87;101686.03;4927649;29;20024;-73
2021/10/10 01:36:16;;;;;;;6.85;6.35;;;;;;;12.55;65.17;101677.97;4891125;29;20060;-74
2021/10/10 01:38:45;;;;;;;5.68;5.18;;;;;;;12.62;64.79;101686.88;4904181;29;20028;-74
2021/10/10 01:41:11;;;;;;;4.03;3.83;;;;;;;12.55;64.98;101670.53;4904467;29;20043;-72
2021/10/10 01:43:38;;;;;;;4.80;4.43;;;;;;;12.66;65.31;101679.81;4906344;29;20028;-72
2021/10/10 01:46:04;;;;;;;4.32;4.03;;;;;;;12.75;65.13;101686.53;4903041;29;20148;-73
2021/10/10 01:48:30;;;;;;;5.55;3.90;;;;;;;12.74;64.75;101671.13;4905332;29;20020;-73
2021/10/10 01:51:07;;;;;;;3.33;3.13;;;;;;;12.80;64.78;101679.47;4908663;29;20035;-73
2021/10/10 01:53:43;;;;;;;4.35;4.03;;;;;;;12.81;64.72;101679.22;4903670;29;20033;-74
2021/10/10 01:56:11;;;;;;;4.32;3.95;;;;;;;12.86;64.38;101675.69;4904774;29;20043;-74
2021/10/10 01:58:36;;;;;;;4.88;3.97;;;;;;;12.83;64.50;101665.22;4909631;29;20048;-72
2021/10/10 02:01:02;;;;;;;3.85;3.33;;;;;;;12.94;64.59;101661.56;4902555;29;20036;-73
2021/10/10 02:03:28;;;;;;;5.75;5.25;;;;;;;13.10;64.58;101665.38;4918564;29;20088;-73
2021/10/10 02:05:53;;;;;;;6.85;6.18;;;;;;;13.19;64.76;101663.84;4924724;29;20033;-72
2021/10/10 02:08:24;;;;;;;8.48;7.45;;;;;;;13.21;64.90;101644.34;4907643;29;20045;-73
2021/10/10 02:10:49;;;;;;;9.18;8.30;;;;;;;13.28;64.78;101639.50;4908033;29;20068;-72
2021/10/10 02:13:15;;;;;;;6.72;6.13;;;;;;;13.40;64.24;101648.50;4917546;29;20024;-73
2021/10/10 02:15:40;;;;;;;4.80;4.40;;;;;;;13.41;64.31;101639.16;4912164;29;20032;-73
2021/10/10 02:18:07;;;;;;;3.40;3.20;;;;;;;13.46;63.95;101643.06;4897309;29;20063;-74
2021/10/10 02:20:33;;;;;;;3.10;2.80;;;;;;;13.51;64.54;101643.13;4923915;29;20021;-73
2021/10/10 02:23:00;;;;;;;2.45;2.35;;;;;;;13.54;63.91;101648.94;4923937;29;20056;-73
2021/10/10 02:25:25;;;;;;;4.68;3.60;;;;;;;13.52;63.88;101644.78;4932807;29;20035;-73
2021/10/10 02:27:59;;;;;;;2.88;2.58;;;;;;;13.51;64.32;101643.13;4907247;29;20020;-71
2021/10/10 02:30:24;;;;;;;3.05;2.72;;;;;;;13.46;63.53;101645.81;4926929;29;20042;-73
2021/10/10 02:32:50;;;;;;;2.58;2.17;;;;;;;13.42;63.62;101642.75;4925847;29;20103;-71
2021/10/10 02:35:16;;;;;;;3.13;3.00;;;;;;;13.40;63.86;101648.50;4927114;29;20088;-72
2021/10/10 02:37:43;;;;;;;3.08;2.88;;;;;;;13.31;64.28;101628.00;4920636;29;20084;-73
2021/10/10 02:40:10;;;;;;;2.60;2.50;;;;;;;13.34;64.21;101632.16;4908738;29;20032;-73
2021/10/10 02:42:38;;;;;;;2.45;2.35;;;;;;;13.40;63.70;101643.00;4926330;29;20028;-73
2021/10/10 02:45:06;;;;;;;4.05;3.25;;;;;;;13.38;63.87;101631.44;4925429;29;20036;-71
2021/10/10 02:47:31;;;;;;;2.53;2.42;;;;;;;13.41;64.05;101638.34;4925366;29;20038;-73
2021/10/10 02:49:59;;;;;;;2.85;2.65;;;;;;;13.46;63.95;101641.13;4925253;29;20055;-73
2021/10/10 02:52:25;;;;;;;3.55;3.22;;;;;;;13.53;63.81;101640.97;4911606;29;20188;-70
2021/10/10 02:54:51;;;;;;;4.20;3.70;;;;;;;13.58;63.90;101646.50;4893045;29;20036;-71
2021/10/10 02:57:18;;;;;;;3.08;2.90;;;;;;;13.66;63.52;101651.56;4914284;29;20046;-71
2021/10/10 02:59:44;;;;;;;4.47;4.10;;;;;;;13.68;63.45;101648.53;4920875;29;20032;-72
2021/10/10 03:02:09;;;;;;;4.97;4.60;;;;;;;13.73;64.05;101651.38;4930520;29;20043;-70
2021/10/10 03:04:35;;;;;;;3.28;3.08;;;;;;;13.68;63.36;101637.56;4927846;29;20107;-70
2021/10/10 03:07:01;;;;;;;4.68;4.28;;;;;;;13.78;63.79;101644.00;4912450;29;20091;-71
2021/10/10 03:09:26;;;;;;;9.75;8.20;;;;;;;13.96;64.06;101650.25;4892529;29;20031;-73
2021/10/10 03:11:52;;;;;;;13.23;9.75;;;;;;;14.03;64.18;101645.38;4890283;29;20037;-71
2021/10/10 03:14:18;;;;;;;15.43;11.27;;;;;;;14.12;64.25;101643.81;4922955;29;20091;-71
2021/10/10 03:16:43;;;;;;;11.98;9.80;;;;;;;14.14;63.90;101635.28;4922630;29;20478;-70
2021/10/10 03:19:09;;;;;;;12.52;9.02;;;;;;;14.27;64.08;101645.03;4891354;29;20448;-71
2021/10/10 03:21:34;;;;;;;16.27;9.90;;;;;;;14.29;63.41;101634.59;4907299;29;20044;-70
2021/10/10 03:24:00;;;;;;;11.98;8.55;;;;;;;14.39;63.45;101642.94;4891682;29;20028;-71
2021/10/10 03:26:26;;;;;;;10.15;8.85;;;;;;;14.40;63.74;101643.78;4910969;29;20048;-74
2021/10/10 03:28:52;;;;;;;7.85;7.20;;;;;;;14.42;63.50;101634.16;4924987;29;20032;-72
2021/10/10 03:31:18;;;;;;;7.07;6.43;;;;;;;14.45;63.80;101636.38;4909945;29;20106;-72
2021/10/10 03:33:43;;;;;;;5.32;4.80;;;;;;;14.54;63.05;101646.91;4908934;29;20030;-72
2021/10/10 03:36:10;;;;;;;6.22;5.13;;;;;;;14.53;63.42;101642.50;4924148;29;20108;-72
2021/10/10 03:38:39;;;;;;;4.22;4.03;;;;;;;14.45;63.12;101632.81;4889947;29;20039;-73
2021/10/10 03:41:08;;;;;;;5.90;4.55;;;;;;;14.46;63.15;101637.22;4922452;29;20069;-72
2021/10/10 03:43:33;;;;;;;4.63;4.15;;;;;;;14.48;63.63;101633.13;4909940;29;20395;-73
2021/10/10 03:45:59;;;;;;;4.80;4.40;;;;;;;14.40;63.11;101630.84;4925257;29;20036;-74
2021/10/10 03:48:25;;;;;;;4.38;4.07;;;;;;;14.43;63.03;101633.06;4925935;29;20053;-73
2021/10/10 03:50:51;;;;;;;4.05;3.78;;;;;;;14.46;63.69;101646.31;4909435;29;20028;-71
2021/10/10 03:53:17;;;;;;;5.00;4.70;;;;;;;14.47;63.06;101645.22;4926980;29;20031;-74
2021/10/10 03:55:42;;;;;;;3.90;3.70;;;;;;;14.43;63.13;101632.25;4924577;29;20052;-74
2021/10/10 03:58:12;;;;;;;4.40;4.10;;;;;;;14.53;63.77;101637.00;4913168;29;20031;-74
2021/10/10 04:00:41;;;;;;;16.27;10.50;;;;;;;14.49;63.31;101631.19;4907635;29;20051;-74
2021/10/10 04:03:09;;;;;;;15.90;10.93;;;;;;;14.56;63.67;101636.47;4897656;29;20051;-72
2021/10/10 04:08:01;;;;;;;10.25;9.18;;;;;;;14.64;63.26;101645.09;4907821;29;20038;-72
2021/10/10 04:10:29;;;;;;;18.48;9.93;;;;;;;14.72;63.25;101645.69;4915859;29;20027;-76
2021/10/10 04:12:57;;;;;;;16.27;11.18;;;;;;;14.67;63.58;101638.22;4903538;29;20095;-74
2021/10/10 04:15:23;;;;;;;14.68;10.32;;;;;;;14.71;63.44;101650.38;4901344;29;20064;-74
2021/10/10 04:17:49;;;;;;;10.73;8.88;;;;;;;14.70;63.98;101632.19;4913577;29;20032;-72
2021/10/10 04:20:16;;;;;;;8.60;7.90;;;;;;;14.77;63.74;101632.81;4911240;29;20096;-71
2021/10/10 04:22:43;;;;;;;11.32;8.25;;;;;;;14.74;63.92;101616.81;4927694;29;20059;-72
2021/10/10 04:25:09;;;;;;;9.40;8.48;;;;;;;14.81;63.57;101625.66;4909535;29;20056;-71
2021/10/10 04:27:38;;;;;;;9.55;8.38;;;;;;;14.86;63.66;101629.56;4884791;29;20044;-73
2021/10/10 04:30:06;;;;;;;8.02;7.22;;;;;;;14.88;63.68;101627.34;4927732;29;20038;-72
2021/10/10 04:32:32;;;;;;;8.75;7.90;;;;;;;14.91;64.05;101632.34;4915979;29;20039;-73
2021/10/10 04:34:57;;;;;;;11.20;9.68;;;;;;;14.97;63.86;101636.81;4924773;29;20071;-73
2021/10/10 04:37:23;;;;;;;11.40;8.50;;;;;;;14.96;63.80;101635.94;4914567;29;20046;-74
2021/10/10 04:39:49;;;;;;;8.18;7.53;;;;;;;15.01;64.02;101643.44;4929241;29;20139;-73
2021/10/10 04:42:14;;;;;;;9.30;8.30;;;;;;;15.01;64.39;101633.25;4924993;29;20051;-72
2021/10/10 04:44:40;;;;;;;7.50;6.38;;;;;;;15.03;64.26;101638.47;4926481;29;20086;-72
2021/10/10 04:47:06;;;;;;;11.50;8.10;;;;;;;15.04;64.19;101642.91;4906944;29;20043;-72
2021/10/10 04:49:33;;;;;;;11.80;8.45;;;;;;;15.03;64.31;101646.75;4922764;29;20028;-74
2021/10/10 04:51:58;;;;;;;12.55;9.90;;;;;;;15.06;64.58;101646.22;4906956;29;20127;-72
2021/10/10 04:54:24;;;;;;;8.52;7.63;;;;;;;15.07;64.22;101652.53;4924545;29;20086;-73
2021/10/10 04:56:50;;;;;;;10.40;9.18;;;;;;;15.09;64.41;101650.38;4905847;29;20072;-72
2021/10/10 04:59:15;;;;;;;7.97;7.22;;;;;;;15.06;64.98;101646.22;4893255;29;20036;-72
2021/10/10 05:01:44;;;;;;;6.43;5.82;;;;;;;15.11;64.21;101643.50;4911630;29;20086;-76
2021/10/10 05:04:09;;;;;;;6.15;5.75;;;;;;;15.15;64.98;101644.59;4912613;29;20035;-73
2021/10/10 05:06:41;;;;;;;6.40;5.90;;;;;;;15.22;64.26;101649.88;4912663;29;20028;-73
2021/10/10 05:09:06;;;;;;;7.32;6.68;;;;;;;15.21;64.85;101644.63;4912960;29;20406;-73
2021/10/10 05:11:32;;;;;;;7.57;6.00;;;;;;;15.26;64.85;101647.41;4932524;29;20115;-73
2021/10/10 05:13:57;;;;;;;6.63;6.10;;;;;;;15.25;64.88;101637.50;4892986;29;20040;-70
2021/10/10 05:16:23;;;;;;;5.05;4.65;;;;;;;15.24;64.79;101636.66;4924855;29;20051;-75
2021/10/10 05:18:49;;;;;;;6.57;5.68;;;;;;;15.36;64.81;101650.22;4894918;29;20152;-73
2021/10/10 05:21:15;;;;;;;5.82;5.35;;;;;;;15.38;64.56;101650.78;4931500;29;20028;-73
2021/10/10 05:23:40;;;;;;;11.68;9.32;;;;;;;15.31;65.21;101637.25;4904463;29;20047;-72
2021/10/10 05:26:07;;;;;;;10.30;8.93;;;;;;;15.40;64.94;101656.84;4923814;29;20043;-72
2021/10/10 05:28:34;;;;;;;7.70;7.05;;;;;;;15.34;65.38;101644.16;4906273;29;20028;-73
2021/10/10 05:31:00;;;;;;;15.40;9.52;;;;;;;15.38;65.26;101645.28;4919647;29;20072;-73
2021/10/10 05:33:28;;;;;;;12.68;8.70;;;;;;;15.44;66.19;101652.47;4922643;29;20032;-73
2021/10/10 05:35:54;;;;;;;9.60;8.30;;;;;;;15.43;65.73;101655.50;4924001;29;20097;-72
2021/10/10 05:38:20;;;;;;;12.23;8.15;;;;;;;15.49;65.68;101657.16;4925280;29;20024;-73
2021/10/10 05:40:45;;;;;;;11.00;7.18;;;;;;;15.45;65.48;101648.63;4920578;29;20043;-72
2021/10/10 05:43:11;;;;;;;6.15;5.75;;;;;;;15.51;65.69;101650.28;4913850;29;20034;-73
2021/10/10 05:45:45;;;;;;;6.75;6.20;;;;;;;15.47;65.83;101634.56;4910973;29;20032;-72
2021/10/10 05:48:13;;;;;;;6.97;6.55;;;;;;;15.53;65.66;101650.84;4915906;29;20036;-72
2021/10/10 05:50:39;;;;;;;5.10;4.28;;;;;;;15.51;65.52;101647.53;4911337;29;20040;-73
2021/10/10 05:53:25;;;;;;;4.32;4.07;;;;;;;15.48;65.77;101636.22;4909772;29;20034;-72
2021/10/10 05:55:55;;;;;;;;;;;;;;;15.64;65.25;101656.41;4895288;29;20024;-73
2021/10/10 05:58:21;;;;;;;5.63;5.10;;;;;;;15.54;66.00;101649.75;4922713;29;20285;-73
2021/10/10 06:00:47;;;;;;;4.60;4.30;;;;;;;15.61;66.00;101656.94;4922713;29;20036;-72
2021/10/10 06:03:12;;;;;;;7.05;5.72;;;;;;;15.62;65.75;101664.94;4921082;29;20020;-73
2021/10/10 06:05:39;;;;;;;7.72;6.85;;;;;;;15.56;66.29;101651.41;4918549;29;20454;-71
2021/10/10 06:08:06;;;;;;;8.38;6.80;;;;;;;15.56;65.90;101656.94;4917734;29;20068;-71
2021/10/10 06:10:32;;;;;;;11.13;7.35;;;;;;;15.58;66.19;101663.84;4899925;29;20036;-71
2021/10/10 06:12:58;;;;;;;6.90;6.28;;;;;;;15.62;66.30;101669.63;4906458;29;20056;-73
2021/10/10 06:15:27;;;;;;;6.00;5.57;;;;;;;15.57;65.96;101672.38;4923833;29;20028;-72
2021/10/10 06:17:52;;;;;;;5.72;5.20;;;;;;;15.51;66.00;101658.56;4904504;29;20084;-72
2021/10/10 06:20:18;;;;;;;5.00;4.60;;;;;;;15.56;66.16;101670.72;4921632;29;20032;-72
2021/10/10 06:22:53;;;;;;;13.27;9.23;;;;;;;15.58;66.51;101679.53;4921262;29;20052;-75
2021/10/10 06:25:26;;;;;;;7.80;7.10;;;;;;;15.56;66.48;101674.28;4919222;29;20025;-73
2021/10/10 06:27:52;;;;;;;8.07;7.32;;;;;;;15.60;66.44;101682.88;4910756;29;20036;-73
2021/10/10 06:30:17;;;;;;;6.47;6.03;;;;;;;15.57;66.55;101677.88;4905290;29;20055;-72
2021/10/10 06:32:43;;;;;;;9.02;6.95;;;;;;;15.63;66.51;101687.84;4891691;29;20044;-72
2021/10/10 06:35:09;;;;;;;6.45;5.80;;;;;;;15.68;66.64;101690.59;4922133;29;20074;-73
2021/10/10 06:37:35;;;;;;;6.45;6.05;;;;;;;15.69;66.70;101692.28;4904661;29;20028;-73
2021/10/10 06:40:01;;;;;;;7.22;6.50;;;;;;;15.72;66.72;101697.25;4900593;29;20060;-73
2021/10/10 06:42:27;;;;;;;5.90;5.50;;;;;;;15.74;66.77;101692.31;4908030;29;20377;-73
2021/10/10 06:44:52;;;;;;;4.18;3.97;;;;;;;15.77;66.63;101691.75;4929009;29;20024;-73
2021/10/10 06:47:18;;;;;;;5.13;4.75;;;;;;;15.79;67.14;101692.34;4929402;29;20042;-71
2021/10/10 06:49:46;;;;;;;4.53;4.13;;;;;;;15.76;66.93;101692.03;4930990;29;20107;-72
2021/10/10 06:52:13;;;;;;;7.13;6.47;;;;;;;15.81;67.04;101703.09;4935010;29;20103;-73
2021/10/10 06:54:42;;;;;;;6.97;6.35;;;;;;;15.83;66.89;101698.97;4933178;29;20023;-73
2021/10/10 06:57:08;;;;;;;6.68;5.90;;;;;;;15.86;67.49;101701.19;4911257;29;20036;-71
2021/10/10 06:59:33;;;;;;;7.22;5.40;;;;;;;15.92;67.13;101702.03;4896456;29;20066;-73
2021/10/10 07:01:59;;;;;;;10.65;8.70;;;;;;;15.97;67.33;101701.22;4924405;29;20024;-71
2021/10/10 07:04:45;;;;;;;;;;;;;;;;;;;;;
2021/10/10 07:07:10;;;;;;;6.47;5.88;;;;;;;16.03;67.15;101705.66;4911608;29;20136;-75
2021/10/10 07:09:36;;;;;;;7.90;7.13;;;;;;;16.05;67.30;101704.28;4925624;29;20087;-75
2021/10/10 07:12:02;;;;;;;7.28;6.57;;;;;;;16.10;67.57;101714.50;4906251;29;20028;-75
2021/10/10 07:14:30;;;;;;;13.10;8.60;;;;;;;16.07;67.63;101709.53;4924603;29;20091;-74
2021/10/10 07:16:57;;;;;;;6.25;5.85;;;;;;;16.13;67.64;101713.94;4913790;29;20060;-74
2021/10/10 07:19:25;;;;;;;7.30;6.18;;;;;;;16.19;67.44;101723.91;4907290;29;20595;-70
2021/10/10 07:21:58;;;;;;;7.38;6.80;;;;;;;16.27;67.64;101727.25;4921758;29;20056;-72
2021/10/10 07:27:08;;;;;;;6.75;6.15;;;;;;;16.40;67.21;101724.78;4915137;29;20060;-70
2021/10/10 07:29:34;;;;;;;5.80;5.30;;;;;;;16.46;67.49;101722.84;4923895;29;20475;-72
2021/10/10 07:32:00;;;;;;;6.43;6.03;;;;;;;16.56;67.30;101716.53;4925815;29;20191;-73
2021/10/10 07:34:25;;;;;;;5.70;4.75;;;;;;;16.67;67.27;101714.59;4909969;29;20107;-71
2021/10/10 07:36:51;;;;;;;4.40;4.20;;;;;;;16.81;67.26;101718.44;4922477;29;20095;-68
2021/10/10 07:39:17;;;;;;;5.50;4.97;;;;;;;16.93;66.50;101713.50;4924763;29;20043;-70
2021/10/10 07:41:42;;;;;;;4.30;4.05;;;;;;;17.03;66.50;101711.84;4887989;29;20044;-72
2021/10/10 07:44:12;;;;;;;3.55;3.35;;;;;;;17.13;66.50;101720.13;4890761;29;20136;-69
2021/10/10 07:46:39;;;;;;;3.70;3.38;;;;;;;17.20;66.78;101720.66;4921375;29;20035;-72
2021/10/10 07:49:18;;;;;;;2.17;2.08;;;;;;;17.29;66.33;101718.16;4909749;29;20024;-75
2021/10/10 07:51:44;;;;;;;2.90;2.70;;;;;;;17.44;65.45;101731.09;4921563;29;20020;-73
2021/10/10 07:54:09;;;;;;;2.70;2.60;;;;;;;17.48;65.88;101728.59;4925764;29;20583;-79
2021/10/10 07:56:36;;;;;;;1.95;1.80;;;;;;;17.55;65.98;101720.81;4930436;29;20485;-74
2021/10/10 07:59:02;;;;;;;1.98;1.88;;;;;;;17.69;65.54;101732.13;4891528;29;20032;-74
2021/10/10 08:01:38;;;;;;;2.40;2.10;;;;;;;17.76;65.34;101727.13;4911765;29;20044;-75
2021/10/10 08:04:03;;;;;;;2.00;1.90;;;;;;;17.80;65.56;101731.00;4888545;29;20024;-74
2021/10/10 08:06:29;;;;;;;3.72;3.53;;;;;;;17.92;65.11;101742.56;4871686;29;20056;-71
2021/10/10 08:08:54;;;;;;;3.20;3.00;;;;;;;17.99;65.12;101741.44;4910616;29;20110;-72
2021/10/10 08:11:20;;;;;;;3.08;2.97;;;;;;;18.12;64.66;101747.19;4895070;29;20036;-72
2021/10/10 08:13:45;;;;;;;3.83;3.63;;;;;;;18.21;64.92;101750.19;4924477;29;20028;-73
2021/10/10 08:16:11;;;;;;;4.15;3.95;;;;;;;18.32;64.47;101756.47;4907100;29;20463;-73
2021/10/10 08:18:36;;;;;;;4.93;4.63;;;;;;;18.42;64.41;101750.06;4888159;29;20036;-71
2021/10/10 08:21:02;;;;;;;5.28;4.28;;;;;;;18.56;64.59;101751.06;4873549;29;20180;-71
2021/10/10 08:23:27;;;;;;;5.30;4.90;;;;;;;18.70;63.77;101759.53;4898000;29;20077;-72
2021/10/10 08:25:53;;;;;;;4.25;4.05;;;;;;;18.84;64.25;101752.22;4886754;29;20066;-69
2021/10/10 08:28:18;;;;;;;5.38;5.15;;;;;;;19.05;63.80;101748.50;4892922;29;20112;-70
2021/10/10 08:30:44;;;;;;;3.13;2.90;;;;;;;19.28;63.66;101750.47;4869860;29;20036;-71
2021/10/10 08:33:10;;;;;;;3.25;2.95;;;;;;;19.49;62.64;101758.56;4870322;29;20037;-70
2021/10/10 08:35:35;;;;;;;3.70;3.40;;;;;;;19.68;62.27;101759.47;4900487;29;20029;-70
2021/10/10 08:38:01;;;;;;;4.45;4.05;;;;;;;19.83;62.14;101757.66;4900247;29;20072;-70
2021/10/10 08:40:26;;;;;;;2.88;2.67;;;;;;;20.00;61.58;101766.31;4888990;29;20060;-71
2021/10/10 08:42:57;;;;;;;4.32;4.03;;;;;;;20.13;61.02;101769.50;4878878;29;20097;-72
2021/10/10 08:45:26;;;;;;;5.32;5.03;;;;;;;20.19;60.70;101766.38;4883522;29;20029;-70
2021/10/10 08:47:52;;;;;;;4.00;3.80;;;;;;;20.15;60.25;101775.56;4881104;29;20033;-71
2021/10/10 08:50:36;;;;;;;5.53;5.15;;;;;;;20.14;59.96;101765.63;4882956;29;20444;-72
2021/10/10 08:53:02;;;;;;;5.03;4.72;;;;;;;20.14;59.94;101771.16;4882013;29;20612;-71
2021/10/10 08:55:32;;;;;;;3.88;3.70;;;;;;;20.15;59.83;101768.09;4879524;29;20120;-71
2021/10/10 08:57:59;;;;;;;4.63;4.32;;;;;;;20.22;59.37;101776.03;4894229;29;20684;-70
2021/10/10 09:00:37;;;;;;;5.10;4.50;;;;;;;20.21;59.51;101760.53;4881633;29;20044;-70
2021/10/10 09:03:10;;;;;;;4.00;3.80;;;;;;;20.44;59.25;101778.22;4881638;29;20036;-69
2021/10/10 09:05:35;;;;;;;4.05;3.72;;;;;;;20.40;58.38;101772.44;4884783;29;20053;-71
2021/10/10 09:08:04;;;;;;;4.97;4.57;;;;;;;20.44;58.36;101778.22;4865268;29;20037;-72
2021/10/10 09:10:35;;;;;;;5.25;4.85;;;;;;;20.45;57.99;101782.66;4881958;29;20104;-70
2021/10/10 09:13:05;;;;;;;5.57;5.28;;;;;;;20.49;57.68;101780.13;4892668;29;20165;-70
2021/10/10 09:15:31;;;;;;;3.95;3.65;;;;;;;20.53;57.82;101775.59;4895701;29;20530;-68
2021/10/10 09:17:58;;;;;;;3.13;3.00;;;;;;;20.64;57.45;101785.44;4892473;29;20065;-70
2021/10/10 09:20:32;;;;;;;2.70;2.60;;;;;;;20.79;56.76;101791.91;4879532;29;20048;-69
2021/10/10 09:23:00;;;;;;;7.15;4.35;;;;;;;20.86;56.41;101787.59;4905112;29;20434;-69
2021/10/10 09:25:26;;;;;;;2.40;2.30;;;;;;;20.98;56.52;101794.66;4912637;29;20118;-70
2021/10/10 09:27:52;;;;;;;2.95;2.67;;;;;;;21.05;55.64;101795.91;4915988;29;20034;-70
2021/10/10 09:30:21;;;;;;;3.67;1.95;;;;;;;21.08;55.29;101798.13;4884483;29;20143;-69
2021/10/10 09:32:53;;;;;;;2.30;2.20;;;;;;;21.18;54.63;101793.50;4914740;29;20036;-71
2021/10/10 09:35:28;;;;;;;3.22;2.97;;;;;;;21.27;54.24;101802.78;4914979;29;20024;-70
2021/10/10 09:38:43;;;;;;;1.88;1.77;;;;;;;21.36;53.74;101800.97;4922656;29;20028;-70
2021/10/10 09:41:34;;;;;;;3.53;1.97;;;;;;;21.44;53.94;101793.88;4913321;29;20048;-73
2021/10/10 09:46:40;;;;;;;2.30;2.20;;;;;;;21.68;51.72;101802.03;4921273;29;20020;-75
2021/10/10 09:49:25;;;;;;;3.67;1.63;;;;;;;21.89;52.45;101801.63;4905853;29;20538;-77
2021/10/10 09:51:56;;;;;;;1.60;1.50;;;;;;;22.05;52.12;101816.91;4917077;29;20374;-75
2021/10/10 09:54:58;;;;;;;2.00;1.90;;;;;;;22.24;51.27;101807.59;4924784;29;20099;-73
2021/10/10 09:57:32;;;;;;;2.58;2.38;;;;;;;22.19;50.17;101811.31;4904933;29;20063;-72
2021/10/10 09:59:57;;;;;;;1.42;1.33;;;;;;;22.26;50.41;101813.69;4906022;29;20107;-73
2021/10/10 10:02:40;;;;;;;6.57;1.80;;;;;;;22.34;50.31;101807.44;4916907;29;20410;-73
2021/10/10 10:05:06;;;;;;;1.65;1.55;;;;;;;22.41;49.47;101812.56;4915499;29;20043;-72
2021/10/10 10:07:39;;;;;;;1.85;1.60;;;;;;;22.41;49.34;101810.56;4911669;29;20039;-72
2021/10/10 10:10:07;;;;;;;1.60;1.50;;;;;;;22.32;48.98;101818.03;4916777;29;20059;-73
2021/10/10 10:12:39;;;;;;;0.93;0.93;;;;;;;22.12;48.99;101805.34;4915791;29;20156;-73
2021/10/10 10:15:18;;;;;;;;;;;;;;;;;;;;;
2021/10/10 10:17:46;;;;;;;1.38;1.00;;;;;;;22.12;48.93;101824.84;4910070;29;20079;-73
2021/10/10 10:20:14;;;;;;;1.45;1.35;;;;;;;22.04;48.53;101815.25;4920260;29;20055;-73
2021/10/10 10:22:41;;;;;;;2.28;1.08;;;;;;;22.01;48.30;101810.31;4906770;29;20151;-73
2021/10/10 10:25:13;;;;;;;1.60;0.90;;;;;;;22.04;48.51;101812.47;4920599;29;20079;-73
2021/10/10 10:27:39;;;;;;;0.55;0.55;;;;;;;22.27;48.67;101830.09;4914904;29;20493;-73
2021/10/10 10:30:11;;;;;;;0.82;0.60;;;;;;;22.48;48.43;101826.88;4922553;29;20036;-71
2021/10/10 10:32:40;;;;;;;0.52;0.40;;;;;;;22.59;47.77;101814.38;4922242;29;20140;-71
2021/10/10 10:35:15;;;;;;;0.70;0.70;;;;;;;22.83;46.43;101819.63;4904340;29;20124;-72
2021/10/10 10:37:43;;;;;;;;;;;;;;;23.17;46.03;101817.44;4920462;29;20026;-72
2021/10/10 10:40:15;;;;;;;0.77;0.50;;;;;;;23.34;44.12;101822.31;4921378;29;19922;-73
2021/10/10 10:43:27;;;;;;;0.82;0.65;;;;;;;23.86;44.68;101822.59;4920634;29;20024;-72
2021/10/10 10:46:06;;;;;;;0.47;0.47;;;;;;;24.55;43.02;101815.53;4921430;29;20195;-72
2021/10/10 10:48:35;;;;;;;0.40;0.40;;;;;;;25.38;43.19;101812.88;4919358;29;20111;-72
2021/10/10 10:51:14;;;;;;;1.65;0.30;;;;;;;26.44;41.66;101814.00;4920560;29;20105;-73
2021/10/10 10:53:43;;;;;;;0.30;0.30;;;;;;;27.28;41.18;101802.69;4917043;29;20028;-72
2021/10/10 10:56:33;;;;;;;1.30;0.60;;;;;;;28.63;39.66;101815.13;4890276;29;20039;-71
2021/10/10 10:58:59;;;;;;;1.08;0.52;;;;;;;29.21;35.96;101811.13;4917813;29;20063;-72
2021/10/10 11:01:45;;;;;;;1.98;1.00;;;;;;;29.40;35.47;101813.25;4922841;29;20024;-72
2021/10/10 11:04:30;;;;;;;0.70;0.60;;;;;;;30.03;34.77;101809.63;4904127;29;20127;-70
2021/10/10 11:06:57;;;;;;;;;;;;;;;31.00;33.37;101818.59;4913731;29;20031;-73
2021/10/10 11:09:26;;;;;;;2.17;1.15;;;;;;;31.44;33.31;101807.72;4913324;29;19919;-73
2021/10/10 11:12:00;;;;;;;0.95;0.82;;;;;;;32.14;31.95;101825.47;4899894;29;20040;-74
2021/10/10 11:14:31;;;;;;;2.05;0.50;;;;;;;32.88;30.86;101812.72;4917564;29;20032;-73
2021/10/10 11:17:17;;;;;;;0.50;0.50;;;;;;;33.46;29.94;101824.66;4912878;29;20103;-73
2021/10/10 11:19:48;;;;;;;0.77;0.40;;;;;;;33.89;28.91;101819.38;4921350;29;20042;-73
2021/10/10 11:22:16;;;;;;;0.73;0.38;;;;;;;34.24;28.70;101835.00;4916398;29;20060;-73
2021/10/10 11:24:46;;;;;;;0.30;0.30;;;;;;;34.67;27.53;101819.41;4921653;29;20494;-72
2021/10/10 11:27:13;;;;;;;0.20;0.20;;;;;;;35.14;26.82;101826.09;4921819;29;20035;-72
2021/10/10 11:29:50;;;;;;;0.50;0.40;;;;;;;35.75;26.53;101822.50;4928118;29;20059;-72
2021/10/10 11:32:15;;;;;;;1.83;0.50;;;;;;;36.80;25.80;101825.91;4924766;29;20083;-74
2021/10/10 11:34:41;;;;;;;0.90;0.55;;;;;;;37.64;24.20;101830.66;4921133;29;20059;-72
2021/10/10 11:37:12;;;;;;;0.50;0.30;;;;;;;38.42;23.51;101830.31;4907168;29;20081;-73
2021/10/10 11:39:45;;;;;;;0.85;0.40;;;;;;;38.92;22.36;101829.69;4922280;29;20032;-72